Time;durP1;ratioP1;P1;durP2;ratioP2;P2;SDS_P1;SDS_P2;PMS_P1;PMS_P2;Temp;Humidity;BMP_temperature;BMP_pressure;BME280_temperature;BME280_humidity;BME280_pressure;Samples;Min_cycle;Max_cycle;Signal;HPM_P1;HPM_P2
2022/01/07 00:01:27;;;;;;;7.30;4.30;;;;;;;1.54;78.62;98842.37;109200;1276;22504;-56
2022/01/07 00:03:56;;;;;;;8.60;4.30;;;;;;;1.52;78.25;98847.95;109121;1277;139512;-57
2022/01/07 00:06:23;;;;;;;8.00;4.00;;;;;;;1.52;78.16;98857.24;109185;1276;22587;-57
2022/01/07 00:08:52;;;;;;;8.80;4.30;;;;;;;1.52;78.02;98860.88;109265;1276;22458;-57
2022/01/07 00:11:20;;;;;;;9.80;4.10;;;;;;;1.51;78.05;98862.05;109135;1277;139483;-58
2022/01/07 00:13:48;;;;;;;7.80;5.10;;;;;;;1.50;77.83;98873.28;109198;1277;23771;-57
2022/01/07 00:16:16;;;;;;;9.40;4.50;;;;;;;1.48;77.65;98874.12;109141;1277;137792;-57
2022/01/07 00:18:45;;;;;;;6.90;3.80;;;;;;;1.46;77.50;98877.21;109204;1276;22477;-58
2022/01/07 00:21:13;;;;;;;5.40;3.90;;;;;;;1.46;77.61;98880.85;109168;1276;22490;-58
2022/01/07 00:23:41;;;;;;;5.80;3.70;;;;;;;1.46;77.70;98882.52;109055;1277;137681;-58
2022/01/07 00:26:08;;;;;;;6.30;3.80;;;;;;;1.47;77.78;98882.17;109166;1276;22515;-58
2022/01/07 00:28:36;;;;;;;7.80;4.00;;;;;;;1.47;77.67;98880.89;109103;1276;138594;-58
2022/01/07 00:31:04;;;;;;;8.20;4.20;;;;;;;1.48;77.61;98883.08;109240;1276;22427;-58
2022/01/07 00:33:32;;;;;;;5.90;4.10;;;;;;;1.49;77.80;98888.31;109104;1276;137896;-58
2022/01/07 00:36:00;;;;;;;7.50;4.20;;;;;;;1.50;77.63;98892.15;109189;1277;22383;-58
2022/01/07 00:38:30;;;;;;;7.30;4.00;;;;;;;1.50;77.60;98886.86;109175;1277;22453;-58
2022/01/07 00:40:58;;;;;;;8.40;4.30;;;;;;;1.51;77.32;98893.23;109080;1278;138402;-58
2022/01/07 00:43:25;;;;;;;7.10;4.10;;;;;;;1.52;77.21;98896.52;109246;1276;22469;-59
2022/01/07 00:45:53;;;;;;;7.80;4.10;;;;;;;1.53;77.20;98897.64;109055;1276;138038;-58
2022/01/07 00:48:21;;;;;;;5.60;3.70;;;;;;;1.54;77.33;98899.36;109203;1277;22508;-59
2022/01/07 00:50:49;;;;;;;6.80;3.70;;;;;;;1.55;77.01;98903.41;109118;1276;22621;-59
2022/01/07 00:53:17;;;;;;;6.10;3.50;;;;;;;1.57;76.75;98907.95;109072;1277;138836;-59
2022/01/07 00:55:45;;;;;;;5.50;3.10;;;;;;;1.56;76.50;98911.34;109213;1276;22467;-60
2022/01/07 00:58:13;;;;;;;4.70;3.00;;;;;;;1.55;76.32;98907.33;109103;1276;138840;-59
2022/01/07 01:00:41;;;;;;;5.00;3.10;;;;;;;1.54;76.30;98912.83;109201;1277;22543;-59
2022/01/07 01:03:09;;;;;;;5.30;3.20;;;;;;;1.53;76.10;98911.67;109225;1277;22421;-59
2022/01/07 01:05:37;;;;;;;5.80;3.40;;;;;;;1.54;76.11;98911.30;109070;1276;139534;-60
2022/01/07 01:08:05;;;;;;;3.50;2.70;;;;;;;1.54;76.01;98910.55;109178;1276;23609;-60
2022/01/07 01:10:33;;;;;;;3.90;2.80;;;;;;;1.54;76.07;98909.86;109095;1276;139045;-59
2022/01/07 01:13:01;;;;;;;5.50;3.40;;;;;;;1.53;75.58;98909.70;109202;1276;22505;-60
2022/01/07 01:15:29;;;;;;;4.10;3.00;;;;;;;1.53;75.41;98906.56;109083;1276;140042;-60
2022/01/07 01:17:58;;;;;;;6.30;3.40;;;;;;;1.53;75.43;98913.20;109238;1277;22591;-60
2022/01/07 01:20:26;;;;;;;5.00;3.20;;;;;;;1.52;75.04;98911.92;109165;1276;22439;-60
2022/01/07 01:22:54;;;;;;;4.90;3.00;;;;;;;1.49;74.69;98917.55;109124;1276;137708;-60
2022/01/07 01:25:22;;;;;;;4.50;2.70;;;;;;;1.46;74.91;98918.59;109184;1277;22491;-59
2022/01/07 01:27:50;;;;;;;3.10;2.50;;;;;;;1.42;74.31;98921.73;109134;1276;137926;-59
2022/01/07 01:30:18;;;;;;;4.90;2.90;;;;;;;1.37;74.48;98920.21;109187;1276;22604;-60
2022/01/07 01:32:47;;;;;;;4.10;2.70;;;;;;;1.36;74.46;98918.36;108932;1277;258282;-59
2022/01/07 01:36:55;;;;;;;3.80;2.80;;;;;;;1.37;74.22;98928.42;101752;1309;545288;-58
2022/01/07 01:39:23;;;;;;;5.10;2.80;;;;;;;1.35;73.87;98932.16;104254;1284;137271;-58
2022/01/07 01:41:51;;;;;;;4.40;3.00;;;;;;;1.35;73.99;98938.44;103885;1287;25396;-58
2022/01/07 01:44:19;;;;;;;5.80;3.10;;;;;;;1.32;73.87;98946.23;108061;1287;23415;-58
2022/01/07 01:46:47;;;;;;;5.00;3.40;;;;;;;1.29;73.77;98952.77;108083;1287;136958;-58
2022/01/07 01:49:15;;;;;;;3.60;2.80;;;;;;;1.27;73.89;98959.73;108296;1286;23560;-59
2022/01/07 01:51:43;;;;;;;4.10;3.00;;;;;;;1.27;73.89;98971.10;108326;1283;137092;-58
2022/01/07 01:54:10;;;;;;;7.20;3.30;;;;;;;1.25;73.89;98969.33;108450;1284;22644;-58
2022/01/07 01:56:38;;;;;;;4.40;3.00;;;;;;;1.24;73.67;98971.42;108486;1284;22478;-58
2022/01/07 01:59:07;;;;;;;4.90;3.00;;;;;;;1.24;73.71;98977.86;108372;1282;138093;-58
2022/01/07 02:01:40;;;;;;;4.90;3.20;;;;;;;1.24;73.71;98971.64;108436;1284;22411;-58
2022/01/07 02:04:08;;;;;;;4.60;2.60;;;;;;;1.24;74.02;98972.38;108264;1284;137356;-59
2022/01/07 02:06:36;;;;;;;7.00;3.20;;;;;;;1.23;73.92;98974.77;108487;1284;22565;-59
2022/01/07 02:09:05;;;;;;;5.30;3.10;;;;;;;1.23;74.12;98979.64;108513;1284;23308;-59
2022/01/07 02:11:33;;;;;;;7.80;4.00;;;;;;;1.24;74.39;98986.12;108377;1284;138235;-59
2022/01/07 02:14:01;;;;;;;7.40;4.20;;;;;;;1.24;74.66;98982.66;108468;1284;22601;-59
2022/01/07 02:16:29;;;;;;;6.50;4.10;;;;;;;1.25;74.46;98983.85;108373;1284;138567;-59
2022/01/07 02:18:57;;;;;;;5.30;3.40;;;;;;;1.22;74.45;98979.69;108473;1284;23474;-59
2022/01/07 02:21:26;;;;;;;7.60;3.70;;;;;;;1.24;74.37;98990.05;108372;1284;137870;-58
2022/01/07 02:23:53;;;;;;;7.00;4.30;;;;;;;1.24;74.48;98991.28;108478;1284;23168;-59
2022/01/07 02:26:21;;;;;;;6.10;3.40;;;;;;;1.23;74.68;98994.05;108355;1284;22476;-59
2022/01/07 02:28:49;;;;;;;4.40;2.70;;;;;;;1.19;74.65;98993.73;108274;1284;139084;-59
2022/01/07 02:31:18;;;;;;;3.30;2.50;;;;;;;1.16;74.71;98995.30;108358;1284;22478;-59
2022/01/07 02:33:47;;;;;;;7.00;2.40;;;;;;;1.14;74.90;99000.23;108281;1285;142784;-58
2022/01/07 02:36:15;;;;;;;2.90;2.40;;;;;;;1.13;74.83;99001.55;108416;1284;22485;-59
2022/01/07 02:38:42;;;;;;;4.60;2.20;;;;;;;1.14;74.92;99000.77;108380;1284;22445;-59
2022/01/07 02:41:10;;;;;;;3.60;2.20;;;;;;;1.12;74.93;99006.46;108334;1284;140343;-58
2022/01/07 02:43:38;;;;;;;3.30;2.00;;;;;;;1.10;75.21;99014.52;108666;1282;22460;-59
2022/01/07 02:46:06;;;;;;;4.30;1.70;;;;;;;1.10;75.07;99016.33;108550;1281;138923;-59
2022/01/07 02:48:34;;;;;;;4.80;2.60;;;;;;;1.08;75.20;99019.67;108710;1281;22435;-59
2022/01/07 02:51:10;;;;;;;4.00;1.90;;;;;;;1.05;75.39;99023.96;108663;1281;22466;-59
2022/01/07 02:53:38;;;;;;;4.60;2.50;;;;;;;1.03;75.50;99028.88;108516;1281;138876;-59
2022/01/07 02:56:06;;;;;;;2.90;1.50;;;;;;;1.01;75.51;99034.26;108704;1280;22512;-59
2022/01/07 02:58:34;;;;;;;5.20;2.10;;;;;;;1.00;75.48;99038.60;108579;1281;138271;-58
2022/01/07 03:01:02;;;;;;;3.00;1.80;;;;;;;0.97;76.07;99049.00;108693;1280;23280;-59
2022/01/07 03:03:30;;;;;;;3.70;1.30;;;;;;;0.95;76.38;99060.21;108606;1281;138587;-59
2022/01/07 03:05:58;;;;;;;3.00;1.80;;;;;;;0.87;82.44;99069.25;108713;1281;22544;-59
2022/01/07 03:08:31;;;;;;;3.00;1.40;;;;;;;0.77;84.66;99087.81;108732;1281;23939;-59
2022/01/07 03:10:59;;;;;;;2.30;1.30;;;;;;;0.63;86.10;99091.98;108585;1281;137100;-60
2022/01/07 03:13:27;;;;;;;2.50;1.10;;;;;;;0.48;87.31;99095.37;108654;1282;22502;-59
2022/01/07 03:15:55;;;;;;;2.20;1.10;;;;;;;0.35;88.06;99105.16;108622;1280;141494;-59
2022/01/07 03:18:23;;;;;;;2.00;1.10;;;;;;;0.21;88.39;99102.32;108666;1281;22433;-59
2022/01/07 03:20:51;;;;;;;1.90;1.40;;;;;;;0.11;88.21;99107.89;108715;1281;22534;-60
2022/01/07 03:23:19;;;;;;;1.70;1.10;;;;;;;0.04;88.48;99113.17;108598;1281;138282;-59
2022/01/07 03:25:47;;;;;;;1.10;1.00;;;;;;;0.00;88.34;99119.31;108635;1280;22480;-59
2022/01/07 03:28:15;;;;;;;1.70;1.00;;;;;;;-0.02;87.95;99125.82;108599;1282;138508;-59
2022/01/07 03:30:42;;;;;;;1.70;1.20;;;;;;;-0.07;87.47;99129.70;108695;1280;23739;-59
2022/01/07 03:33:10;;;;;;;1.60;0.90;;;;;;;-0.10;87.41;99132.98;108687;1281;22501;-59
2022/01/07 03:35:38;;;;;;;1.30;1.10;;;;;;;-0.12;87.04;99137.41;108579;1281;137504;-59
2022/01/07 03:38:06;;;;;;;3.90;1.90;;;;;;;-0.15;86.76;99145.11;108648;1281;23323;-59
2022/01/07 03:40:34;;;;;;;11.50;5.50;;;;;;;-0.18;86.84;99148.48;108561;1281;137474;-59
2022/01/07 03:43:02;;;;;;;11.50;4.90;;;;;;;-0.18;86.67;99155.89;108683;1280;23224;-59
2022/01/07 03:45:30;;;;;;;3.20;1.90;;;;;;;-0.19;86.63;99155.23;108570;1282;138128;-59
2022/01/07 03:47:58;;;;;;;3.00;1.50;;;;;;;-0.17;86.80;99160.18;108600;1281;23309;-58
2022/01/07 03:50:28;;;;;;;3.10;1.80;;;;;;;-0.16;86.39;99162.70;108670;1281;23539;-60
2022/01/07 03:52:57;;;;;;;3.70;2.00;;;;;;;-0.17;86.23;99162.13;108583;1280;137398;-60
2022/01/07 03:55:26;;;;;;;3.60;1.60;;;;;;;-0.17;86.11;99166.03;108663;1281;22554;-59
2022/01/07 03:57:54;;;;;;;3.10;1.10;;;;;;;-0.17;86.03;99168.74;108565;1280;137770;-59
2022/01/07 04:00:35;;;;;;;2.50;1.40;;;;;;;-0.15;85.94;99169.38;108632;1281;22474;-59
2022/01/07 04:03:05;;;;;;;2.80;1.60;;;;;;;-0.13;85.50;99173.45;108655;1281;23487;-59
2022/01/07 04:05:33;;;;;;;2.10;1.40;;;;;;;-0.12;85.45;99181.41;108587;1280;137527;-59
2022/01/07 04:08:01;;;;;;;2.10;1.40;;;;;;;-0.11;85.45;99182.73;109378;1274;22451;-59
2022/01/07 04:10:29;;;;;;;2.00;1.30;;;;;;;-0.10;85.39;99184.92;109333;1274;137907;-59
2022/01/07 04:12:57;;;;;;;1.80;1.40;;;;;;;-0.09;85.37;99189.29;109435;1274;23131;-59
2022/01/07 04:15:25;;;;;;;1.80;1.50;;;;;;;-0.09;85.41;99191.42;109309;1273;137954;-59
2022/01/07 04:17:54;;;;;;;2.10;1.50;;;;;;;-0.10;85.55;99191.55;109435;1273;22567;-59
2022/01/07 04:20:24;;;;;;;2.90;1.80;;;;;;;-0.11;85.45;99196.11;109415;1273;23483;-59
2022/01/07 04:22:52;;;;;;;3.40;1.50;;;;;;;-0.11;85.17;99203.86;109313;1273;138122;-59
2022/01/07 04:25:21;;;;;;;1.60;1.50;;;;;;;-0.12;85.00;99206.48;109460;1273;23233;-59
2022/01/07 04:27:51;;;;;;;3.00;2.00;;;;;;;-0.13;85.00;99211.55;109299;1273;137741;-59
2022/01/07 04:30:20;;;;;;;3.80;2.00;;;;;;;-0.14;84.58;99213.06;109395;1273;22439;-59
2022/01/07 04:32:48;;;;;;;4.30;2.30;;;;;;;-0.15;84.32;99215.62;109430;1273;22453;-59
2022/01/07 04:35:16;;;;;;;3.30;2.40;;;;;;;-0.16;84.52;99219.84;109231;1273;138287;-59
2022/01/07 04:37:45;;;;;;;2.10;1.70;;;;;;;-0.16;84.07;99220.66;109450;1272;23263;-59
2022/01/07 04:40:13;;;;;;;2.50;1.70;;;;;;;-0.15;83.89;99225.73;109332;1272;138645;-59
2022/01/07 04:42:42;;;;;;;3.60;1.80;;;;;;;-0.14;83.85;99225.85;109367;1274;22522;-59
2022/01/07 04:45:11;;;;;;;3.50;1.70;;;;;;;-0.13;83.54;99225.60;109391;1274;22512;-51
2022/01/07 04:47:39;;;;;;;2.20;1.20;;;;;;;-0.12;83.42;99229.06;109195;1274;138423;-59
2022/01/07 04:50:18;;;;;;;4.20;1.50;;;;;;;-0.08;82.90;99236.02;109356;1274;22522;-60
2022/01/07 04:52:47;;;;;;;1.70;1.20;;;;;;;-0.06;82.79;99239.91;109308;1273;137843;-59
2022/01/07 04:55:20;;;;;;;1.60;1.10;;;;;;;-0.08;83.16;99249.14;109386;1273;22460;-59
2022/01/07 04:57:49;;;;;;;1.40;1.00;;;;;;;-0.15;83.57;99254.05;109292;1273;139334;-59
2022/01/07 05:00:18;;;;;;;1.30;1.10;;;;;;;-0.22;83.65;99258.41;109365;1273;22406;-60
2022/01/07 05:02:47;;;;;;;1.80;1.10;;;;;;;-0.29;84.14;99261.99;109255;1274;23511;-59
2022/01/07 05:05:15;;;;;;;3.40;1.50;;;;;;;-0.31;84.27;99260.88;109347;1274;137776;-58
2022/01/07 05:07:43;;;;;;;2.50;1.50;;;;;;;-0.33;84.51;99264.02;109494;1274;22488;-59
2022/01/07 05:10:12;;;;;;;1.60;1.50;;;;;;;-0.35;84.45;99271.13;109314;1273;139243;-58
2022/01/07 05:12:40;;;;;;;2.50;1.70;;;;;;;-0.35;84.68;99277.05;109456;1273;22237;-59
2022/01/07 05:15:23;;;;;;;3.00;1.60;;;;;;;-0.34;84.66;99279.29;109363;1273;138099;-59
2022/01/07 05:17:52;;;;;;;2.80;1.70;;;;;;;-0.34;84.62;99281.72;109546;1272;22511;-59
2022/01/07 05:20:20;;;;;;;4.40;2.50;;;;;;;-0.34;84.83;99282.48;109501;1271;22526;-59
2022/01/07 05:22:49;;;;;;;4.60;2.30;;;;;;;-0.31;84.74;99290.89;109452;1271;137771;-59
2022/01/07 05:25:17;;;;;;;3.10;1.90;;;;;;;-0.32;84.88;99297.92;109533;1271;22464;-60
2022/01/07 05:27:45;;;;;;;3.30;1.90;;;;;;;-0.36;85.30;99316.91;109483;1272;137873;-59
2022/01/07 05:30:13;;;;;;;2.20;1.30;;;;;;;-0.42;88.07;99334.77;109510;1271;22624;-60
2022/01/07 05:32:41;;;;;;;1.40;1.10;;;;;;;-0.56;90.77;99342.16;109496;1273;22612;-60
2022/01/07 05:35:09;;;;;;;2.10;1.30;;;;;;;-0.74;91.43;99343.14;109459;1271;139853;-60
2022/01/07 05:37:37;;;;;;;1.70;1.00;;;;;;;-0.83;92.02;99350.45;109515;1271;22446;-59
2022/01/07 05:40:05;;;;;;;1.50;1.10;;;;;;;-0.90;92.18;99354.33;109404;1271;137720;-59
2022/01/07 05:42:33;;;;;;;1.30;1.00;;;;;;;-1.01;92.16;99361.46;109592;1272;23341;-59
2022/01/07 05:45:01;;;;;;;3.00;1.10;;;;;;;-1.12;92.49;99358.00;109456;1274;23563;-60
2022/01/07 05:47:30;;;;;;;1.10;0.80;;;;;;;-1.19;92.42;99363.55;109447;1273;140338;-59
2022/01/07 05:49:58;;;;;;;1.40;1.00;;;;;;;-1.23;92.28;99370.61;109528;1271;23065;-59
2022/01/07 05:52:26;;;;;;;1.90;1.30;;;;;;;-1.25;92.61;99373.86;109448;1272;138242;-60
2022/01/07 05:54:54;;;;;;;2.80;1.50;;;;;;;-1.27;92.63;99380.42;109567;1271;23285;-60
2022/01/07 05:57:22;;;;;;;1.60;1.40;;;;;;;-1.28;92.20;99391.96;109376;1273;139513;-58
2022/01/07 05:59:50;;;;;;;2.50;1.50;;;;;;;-1.29;92.21;99398.52;109547;1271;22410;-58
2022/01/07 06:02:17;;;;;;;3.60;2.00;;;;;;;-1.30;92.13;99398.52;109590;1273;22444;-58
2022/01/07 06:04:48;;;;;;;3.20;1.50;;;;;;;-1.30;91.92;99402.80;109460;1271;139348;-58
2022/01/07 06:07:16;;;;;;;3.40;1.70;;;;;;;-1.31;91.38;99405.72;109537;1271;22431;-58
2022/01/07 06:09:44;;;;;;;3.80;1.40;;;;;;;-1.32;91.30;99406.80;109369;1271;139383;-59
2022/01/07 06:12:28;;;;;;;3.70;1.90;;;;;;;-1.32;90.84;99415.92;109501;1272;23028;-58
2022/01/07 06:14:56;;;;;;;2.70;1.50;;;;;;;-1.34;90.21;99417.55;109472;1272;22536;-59
2022/01/07 06:17:24;;;;;;;4.90;1.70;;;;;;;-1.35;89.98;99420.86;109306;1273;137829;-59
2022/01/07 06:19:52;;;;;;;4.40;2.40;;;;;;;-1.34;89.36;99431.15;109384;1273;22398;-59
2022/01/07 06:22:19;;;;;;;5.20;2.50;;;;;;;-1.36;88.91;99439.02;109295;1274;139777;-60
2022/01/07 06:24:47;;;;;;;4.40;2.10;;;;;;;-1.37;88.58;99445.66;109396;1272;22681;-60
2022/01/07 06:27:15;;;;;;;4.10;2.00;;;;;;;-1.38;87.79;99449.58;109356;1274;23553;-59
2022/01/07 06:29:44;;;;;;;6.30;3.90;;;;;;;-1.41;87.15;99451.67;109279;1273;140015;-59
2022/01/07 06:32:12;;;;;;;3.00;1.60;;;;;;;-1.43;86.49;99455.09;109424;1274;22489;-60
2022/01/07 06:34:40;;;;;;;3.80;2.60;;;;;;;-1.45;86.20;99459.14;109271;1274;138367;-59
2022/01/07 06:37:08;;;;;;;6.00;3.60;;;;;;;-1.47;86.05;99465.01;109404;1274;22442;-59
2022/01/07 06:39:36;;;;;;;15.90;7.00;;;;;;;-1.47;85.59;99474.17;109330;1274;138199;-59
2022/01/07 06:42:04;;;;;;;63.40;27.90;;;;;;;-1.49;84.76;99482.04;109399;1274;22431;-59
2022/01/07 06:44:32;;;;;;;42.10;19.80;;;;;;;-1.50;84.67;99486.08;109368;1274;22455;-59
2022/01/07 06:47:00;;;;;;;14.30;6.30;;;;;;;-1.51;84.47;99494.33;109312;1274;140736;-59
2022/01/07 06:49:28;;;;;;;69.00;28.70;;;;;;;-1.50;84.29;99502.81;109341;1273;22497;-59
2022/01/07 06:51:57;;;;;;;24.90;10.90;;;;;;;-1.49;84.00;99508.25;109251;1273;138750;-59
2022/01/07 06:54:27;;;;;;;13.40;6.00;;;;;;;-1.49;83.79;99508.74;109405;1273;23156;-60
2022/01/07 06:56:55;;;;;;;9.60;4.50;;;;;;;-1.49;83.59;99512.41;106214;1274;22727;-58
2022/01/07 06:59:22;;;;;;;25.80;11.30;;;;;;;-1.49;83.03;99514.92;104874;1274;138206;-58
2022/01/07 07:01:50;;;;;;;7.80;3.80;;;;;;;-1.51;82.70;99515.87;104981;1274;25569;-57
2022/01/07 07:04:18;;;;;;;13.50;6.40;;;;;;;-1.53;82.38;99523.97;104942;1274;138843;-57
2022/01/07 07:06:46;;;;;;;12.00;5.60;;;;;;;-1.53;82.44;99528.65;109335;1273;23611;-58
2022/01/07 07:09:15;;;;;;;8.30;3.80;;;;;;;-1.54;81.99;99530.36;109355;1274;23242;-58
2022/01/07 07:11:43;;;;;;;6.20;3.20;;;;;;;-1.55;81.66;99537.54;109328;1273;138216;-58
2022/01/07 07:14:11;;;;;;;7.70;3.90;;;;;;;-1.57;81.48;99539.63;109401;1274;22551;-58
2022/01/07 07:16:40;;;;;;;6.20;3.70;;;;;;;-1.57;81.12;99542.70;109269;1273;137818;-59
2022/01/07 07:19:07;;;;;;;5.90;2.70;;;;;;;-1.59;81.00;99549.61;109392;1274;23122;-59
2022/01/07 07:21:35;;;;;;;10.10;4.10;;;;;;;-1.58;80.83;99557.86;109242;1273;138986;-59
2022/01/07 07:24:04;;;;;;;10.90;4.90;;;;;;;-1.57;80.80;99556.68;109343;1274;23336;-60
2022/01/07 07:26:32;;;;;;;6.70;4.00;;;;;;;-1.55;80.70;99565.77;106972;1273;22583;-58
2022/01/07 07:29:00;;;;;;;6.90;3.50;;;;;;;-1.54;80.20;99568.95;104897;1274;139011;-60
2022/01/07 07:31:30;;;;;;;12.90;6.90;;;;;;;-1.54;79.76;99575.27;105060;1273;22978;-59
2022/01/07 07:36:45;;;;;;;7.20;4.40;;;;;;;-1.60;78.78;99582.52;104945;1274;26036;-59
2022/01/07 07:39:14;;;;;;;5.70;3.30;;;;;;;-1.62;78.38;99584.70;109322;1274;23116;-59
2022/01/07 07:41:43;;;;;;;6.90;4.40;;;;;;;-1.64;78.10;99590.08;109297;1274;139579;-60
2022/01/07 07:44:10;;;;;;;8.90;4.60;;;;;;;-1.63;78.33;99600.92;109382;1274;22475;-60
2022/01/07 07:46:40;;;;;;;11.70;4.40;;;;;;;-1.62;78.39;99600.19;109250;1274;137932;-60
2022/01/07 07:49:08;;;;;;;10.80;4.10;;;;;;;-1.60;78.13;99605.14;109367;1274;23375;-60
2022/01/07 07:51:36;;;;;;;6.20;3.90;;;;;;;-1.58;77.97;99612.52;109184;1274;138139;-60
2022/01/07 07:54:04;;;;;;;6.60;3.70;;;;;;;-1.56;78.20;99620.29;109309;1273;22529;-60
2022/01/07 07:56:32;;;;;;;6.60;3.70;;;;;;;-1.54;77.90;99621.36;109404;1274;23751;-60
2022/01/07 07:59:01;;;;;;;7.00;4.20;;;;;;;-1.53;77.41;99626.79;109289;1274;138183;-59
2022/01/07 08:01:29;;;;;;;5.00;3.40;;;;;;;-1.52;77.45;99629.89;109447;1274;23283;-60
2022/01/07 08:03:57;;;;;;;4.70;3.30;;;;;;;-1.53;76.69;99630.14;109247;1273;139165;-59
2022/01/07 08:06:25;;;;;;;5.20;3.60;;;;;;;-1.51;76.74;99636.20;109393;1274;23241;-60
2022/01/07 08:08:53;;;;;;;6.80;5.20;;;;;;;-1.49;76.97;99647.18;109388;1273;22415;-59
2022/01/07 08:11:49;;;;;;;4.30;3.00;;;;;;;-1.49;76.61;99652.86;109351;1273;138703;-60
2022/01/07 08:17:05;;;;;;;5.20;2.90;;;;;;;-1.52;74.97;99666.86;109398;1273;140044;-59
2022/01/07 08:19:33;;;;;;;4.40;1.70;;;;;;;-1.53;74.32;99680.50;109433;1273;22506;-60
2022/01/07 08:22:02;;;;;;;5.20;1.80;;;;;;;-1.53;74.87;99681.50;109299;1273;138349;-59
2022/01/07 08:24:30;;;;;;;3.60;2.20;;;;;;;-1.54;75.50;99689.38;109382;1274;22485;-59
2022/01/07 08:26:58;;;;;;;3.00;2.10;;;;;;;-1.52;74.58;99694.68;109325;1274;22455;-60
2022/01/07 08:29:31;;;;;;;10.20;5.80;;;;;;;-1.51;73.56;99704.70;109372;1272;139661;-60
2022/01/07 08:34:53;;;;;;;3.80;2.00;;;;;;;-1.51;70.54;99706.87;109269;1274;137289;-59
2022/01/07 08:37:27;;;;;;;3.30;2.00;;;;;;;-1.52;69.24;99719.30;109244;1274;23370;-60
2022/01/07 08:39:55;;;;;;;4.30;2.20;;;;;;;-1.54;68.09;99717.56;109216;1274;138285;-59
2022/01/07 08:42:26;;;;;;;5.90;3.90;;;;;;;-1.55;68.11;99718.41;109312;1274;23164;-59
2022/01/07 08:44:54;;;;;;;4.80;3.10;;;;;;;-1.55;68.05;99729.89;109223;1274;23220;-62
2022/01/07 08:47:23;;;;;;;5.40;3.80;;;;;;;-1.54;67.25;99731.42;109224;1274;138166;-59
2022/01/07 08:49:52;;;;;;;7.50;3.60;;;;;;;-1.56;66.38;99735.27;109348;1274;23266;-59
2022/01/07 08:52:20;;;;;;;2.60;2.10;;;;;;;-1.57;64.66;99741.21;109206;1274;136973;-60
2022/01/07 08:54:50;;;;;;;4.00;1.70;;;;;;;-1.60;63.68;99741.52;109314;1273;22420;-60
2022/01/07 08:57:19;;;;;;;4.10;1.80;;;;;;;-1.61;61.14;99746.10;109336;1274;22451;-59
2022/01/07 08:59:48;;;;;;;3.50;2.00;;;;;;;-1.62;60.84;99747.98;109208;1274;136894;-60
2022/01/07 09:02:16;;;;;;;2.20;1.10;;;;;;;-1.60;61.09;99753.31;109284;1274;22414;-60
2022/01/07 09:04:44;;;;;;;3.60;1.60;;;;;;;-1.59;60.26;99755.86;109286;1272;137266;-59
2022/01/07 09:07:12;;;;;;;2.90;1.10;;;;;;;-1.58;58.45;99763.28;105700;1274;23096;-60
2022/01/07 09:09:40;;;;;;;6.80;2.20;;;;;;;-1.61;58.39;99767.70;109296;1274;137499;-61
2022/01/07 09:12:09;;;;;;;1.90;1.30;;;;;;;-1.63;57.66;99769.23;109396;1273;22468;-59
2022/01/07 09:14:37;;;;;;;1.90;1.20;;;;;;;-1.67;58.57;99766.42;109442;1272;23526;-59
2022/01/07 09:17:06;;;;;;;3.50;1.80;;;;;;;-1.68;58.54;99764.75;109286;1274;138616;-59
2022/01/07 09:19:34;;;;;;;4.70;1.80;;;;;;;-1.67;58.79;99768.09;109408;1274;23611;-59
2022/01/07 09:22:02;;;;;;;3.50;1.80;;;;;;;-1.67;58.56;99774.60;109280;1273;138612;-59
2022/01/07 09:24:30;;;;;;;3.70;1.80;;;;;;;-1.69;59.02;99780.34;109455;1273;22467;-59
2022/01/07 09:26:58;;;;;;;5.00;2.60;;;;;;;-1.71;59.11;99782.48;109413;1273;22556;-59
2022/01/07 09:29:27;;;;;;;4.10;2.00;;;;;;;-1.68;59.48;99787.55;109231;1273;138300;-59
2022/01/07 09:31:55;;;;;;;5.40;1.20;;;;;;;-1.67;59.49;99788.69;109450;1272;22509;-59
2022/01/07 09:34:23;;;;;;;3.50;2.40;;;;;;;-1.66;59.60;99790.66;109268;1270;137345;-60
2022/01/07 09:37:00;;;;;;;4.30;1.60;;;;;;;-1.65;59.12;99789.92;109416;1273;22477;-60
2022/01/07 09:39:28;;;;;;;2.40;1.70;;;;;;;-1.66;60.05;99791.23;109336;1270;137315;-60
2022/01/07 09:41:56;;;;;;;3.00;1.30;;;;;;;-1.64;59.80;99797.60;109480;1273;22434;-60
2022/01/07 09:44:24;;;;;;;3.90;1.70;;;;;;;-1.62;60.21;99796.83;109456;1271;22444;-59
2022/01/07 09:46:53;;;;;;;3.90;2.20;;;;;;;-1.60;60.79;99798.80;109333;1273;137844;-59
2022/01/07 09:49:20;;;;;;;1.70;1.30;;;;;;;-1.58;60.98;99800.35;109420;1273;22450;-59
2022/01/07 09:51:49;;;;;;;5.00;2.10;;;;;;;-1.56;61.78;99801.30;109264;1273;137512;-59
2022/01/07 09:54:16;;;;;;;3.20;1.90;;;;;;;-1.51;62.11;99801.58;109504;1273;22516;-58
2022/01/07 09:56:45;;;;;;;3.80;2.00;;;;;;;-1.45;62.37;99806.84;109469;1273;22460;-58
2022/01/07 09:59:13;;;;;;;4.90;2.20;;;;;;;-1.42;62.34;99806.11;109387;1272;137122;-58
2022/01/07 10:01:56;;;;;;;5.50;2.20;;;;;;;-1.39;62.58;99803.14;109459;1273;23084;-59
2022/01/07 10:04:33;;;;;;;6.90;2.50;;;;;;;-1.35;62.90;99816.18;109375;1273;137240;-59
2022/01/07 10:07:13;;;;;;;4.70;2.60;;;;;;;-1.31;63.23;99817.33;109408;1273;22488;-59
2022/01/07 10:09:41;;;;;;;5.40;2.60;;;;;;;-1.27;63.53;99825.55;109326;1274;137320;-58
2022/01/07 10:12:09;;;;;;;7.50;2.80;;;;;;;-1.24;63.40;99825.41;109484;1273;22558;-59
2022/01/07 10:14:38;;;;;;;5.50;2.70;;;;;;;-1.22;63.57;99827.14;109494;1273;22585;-59
2022/01/07 10:17:06;;;;;;;5.10;2.40;;;;;;;-1.20;64.19;99828.16;109388;1273;137895;-59
2022/01/07 10:19:35;;;;;;;4.60;2.50;;;;;;;-1.13;64.27;99832.86;109409;1273;23243;-59
2022/01/07 10:22:14;;;;;;;3.30;1.90;;;;;;;-1.08;64.27;99831.73;109447;1273;137667;-59
2022/01/07 10:24:55;;;;;;;3.80;2.00;;;;;;;-1.02;64.69;99832.14;109505;1273;22650;-60
2022/01/07 10:27:25;;;;;;;4.30;1.90;;;;;;;-0.95;63.61;99835.11;109356;1273;137088;-58
2022/01/07 10:29:53;;;;;;;2.80;1.40;;;;;;;-0.92;62.70;99837.80;109491;1271;22586;-58
2022/01/07 10:32:21;;;;;;;3.10;1.60;;;;;;;-0.92;62.05;99834.06;109489;1273;22463;-58
2022/01/07 10:35:02;;;;;;;5.10;1.70;;;;;;;-0.92;62.68;99836.20;109360;1273;137296;-58
2022/01/07 10:37:30;;;;;;;3.40;1.90;;;;;;;-0.88;62.63;99843.06;109507;1273;23226;-58
2022/01/07 10:39:58;;;;;;;4.20;1.80;;;;;;;-0.84;62.11;99841.19;109378;1273;137467;-58
2022/01/07 10:42:27;;;;;;;5.20;2.30;;;;;;;-0.80;62.44;99841.56;109479;1273;22414;-59
2022/01/07 10:45:03;;;;;;;3.40;1.80;;;;;;;-0.74;62.78;99838.77;109519;1273;22492;-59
2022/01/07 10:47:31;;;;;;;3.30;1.50;;;;;;;-0.70;63.29;99844.46;109376;1273;137101;-59
2022/01/07 10:50:17;;;;;;;3.80;1.80;;;;;;;-0.65;62.88;99850.77;109445;1273;22532;-59
2022/01/07 10:52:45;;;;;;;7.60;3.00;;;;;;;-0.62;62.62;99848.98;109385;1273;138073;-59
2022/01/07 10:55:18;;;;;;;6.30;3.30;;;;;;;-0.59;62.81;99855.26;109201;1274;22530;-60
2022/01/07 10:57:50;;;;;;;5.90;2.70;;;;;;;-0.56;62.34;99848.59;109354;1273;137345;-60
2022/01/07 11:00:19;;;;;;;4.90;2.20;;;;;;;-0.54;62.60;99846.04;109496;1273;22525;-59
2022/01/07 11:02:47;;;;;;;6.20;1.60;;;;;;;-0.51;62.09;99851.73;109508;1273;23522;-59
2022/01/07 11:05:15;;;;;;;5.80;1.70;;;;;;;-0.50;61.98;99853.36;109387;1273;138363;-60
2022/01/07 11:07:44;;;;;;;7.20;2.50;;;;;;;-0.49;62.22;99855.61;109492;1273;22448;-60
2022/01/07 11:10:12;;;;;;;5.80;2.30;;;;;;;-0.48;62.08;99853.16;108994;1274;137187;-59
2022/01/07 11:12:40;;;;;;;6.90;3.00;;;;;;;-0.50;61.46;99849.83;109519;1273;23111;-59
2022/01/07 11:15:10;;;;;;;5.70;1.90;;;;;;;-0.54;61.10;99849.00;109302;1273;22430;-49
2022/01/07 11:17:38;;;;;;;3.70;1.80;;;;;;;-0.60;61.27;99844.55;109140;1274;137258;-59
2022/01/07 11:20:06;;;;;;;3.80;1.70;;;;;;;-0.64;61.30;99851.20;109469;1273;22600;-60
2022/01/07 11:22:38;;;;;;;5.20;2.10;;;;;;;-0.73;60.68;99848.52;109309;1273;138212;-59
2022/01/07 11:25:10;;;;;;;3.90;2.10;;;;;;;-0.82;61.25;99847.09;109377;1273;22492;-59
2022/01/07 11:27:49;;;;;;;11.50;2.90;;;;;;;-0.87;61.55;99847.20;109297;1273;137505;-59
2022/01/07 11:30:28;;;;;;;10.50;2.80;;;;;;;-0.89;61.97;99847.25;109185;1273;22576;-59
2022/01/07 11:32:59;;;;;;;10.20;3.20;;;;;;;-0.89;62.02;99847.95;109411;1273;23090;-57
2022/01/07 11:35:30;;;;;;;8.60;2.60;;;;;;;-0.89;62.18;99857.21;109114;1273;139344;-59
2022/01/07 11:38:06;;;;;;;4.30;2.00;;;;;;;-0.91;61.67;99861.53;109381;1273;22521;-58
2022/01/07 11:40:45;;;;;;;2.90;1.50;;;;;;;-0.94;62.21;99866.23;109178;1273;137405;-59
2022/01/07 11:43:13;;;;;;;4.90;2.10;;;;;;;-0.97;62.20;99870.12;109462;1273;22441;-59